Time;durP1;ratioP1;P1;durP2;ratioP2;P2;SDS_P1;SDS_P2;PMS_P1;PMS_P2;Temp;Humidity;BMP_temperature;BMP_pressure;BME280_temperature;BME280_humidity;BME280_pressure;Samples;Min_cycle;Max_cycle;Signal;HPM_P1;HPM_P2
2022/09/19 00:03:55;;;;;;;4.60;2.70;;;24.40;55.80;;;;;;20811869;28;20248;-56
2022/09/19 00:13:59;;;;;;;3.97;2.55;;;24.30;56.40;;;;;;20841959;28;20060;-56
2022/09/19 00:34:22;;;;;;;6.30;2.88;;;24.10;57.30;;;;;;20843568;28;20473;-56
2022/09/19 00:44:23;;;;;;;10.38;2.85;;;24.00;57.90;;;;;;20842743;28;20549;-55
2022/09/19 00:54:40;;;;;;;5.47;2.93;;;23.90;58.50;;;;;;20841980;28;20148;-57
2022/09/19 01:04:43;;;;;;;7.55;3.90;;;23.90;58.50;;;;;;20842622;28;20095;-57
2022/09/19 01:14:56;;;;;;;8.90;3.40;;;23.70;59.10;;;;;;20840407;28;20056;-57
2022/09/19 01:25:25;;;;;;;6.75;2.72;;;23.70;59.50;;;;;;20840177;28;20061;-57
2022/09/19 01:35:34;;;;;;;6.07;3.10;;;23.60;59.60;;;;;;20506882;29;20531;-57
2022/09/19 01:46:01;;;;;;;7.35;3.10;;;23.50;60.50;;;;;;20506643;28;20051;-57
2022/09/19 01:56:32;;;;;;;6.03;3.10;;;23.50;60.40;;;;;;20505831;28;20507;-57
2022/09/19 02:06:48;;;;;;;7.35;3.40;;;23.40;60.10;;;;;;20608682;28;20059;-56
2022/09/19 02:17:03;;;;;;;6.97;3.28;;;23.30;60.60;;;;;;20836751;28;20492;-55
2022/09/19 02:27:15;;;;;;;8.90;3.53;;;23.20;60.80;;;;;;20834996;28;20064;-57
2022/09/19 02:37:30;;;;;;;6.85;3.53;;;23.10;60.90;;;;;;20832739;28;20045;-55
2022/09/19 02:47:45;;;;;;;5.82;3.00;;;23.10;61.00;;;;;;20833519;28;20136;-56
2022/09/19 02:57:52;;;;;;;5.85;3.40;;;23.10;60.80;;;;;;20833648;28;20092;-56
2022/09/19 03:08:09;;;;;;;5.10;3.17;;;22.90;61.50;;;;;;20815168;28;20053;-56
2022/09/19 03:18:14;;;;;;;6.75;3.00;;;22.90;61.20;;;;;;20832254;28;20053;-56
2022/09/19 03:28:19;;;;;;;4.65;2.78;;;22.70;61.20;;;;;;20831398;28;20128;-57
2022/09/19 03:38:21;;;;;;;6.40;3.33;;;22.70;61.00;;;;;;20829917;28;20409;-58
2022/09/19 03:48:24;;;;;;;5.10;3.03;;;22.60;61.30;;;;;;20829915;28;20481;-54
2022/09/19 03:58:26;;;;;;;6.25;3.53;;;22.60;61.40;;;;;;20829541;28;20077;-55
2022/09/19 04:08:28;;;;;;;6.13;3.13;;;22.40;61.50;;;;;;20829596;28;20049;-57
2022/09/19 04:18:30;;;;;;;4.72;3.33;;;22.30;61.80;;;;;;20829006;28;20127;-56
2022/09/19 04:28:32;;;;;;;;;;;22.20;61.80;;;;;;20828950;28;20077;-55
2022/09/19 04:38:36;;;;;;;6.88;3.63;;;22.20;61.80;;;;;;20828095;28;19925;-55
2022/09/19 04:48:40;;;;;;;5.20;3.35;;;22.20;62.10;;;;;;20827902;28;20103;-54
2022/09/19 04:58:42;;;;;;;6.68;3.95;;;22.10;62.10;;;;;;20836464;28;20053;-55
2022/09/19 05:09:02;;;;;;;5.95;3.85;;;22.10;61.90;;;;;;20841491;28;20037;-54
2022/09/19 05:19:04;;;;;;;6.47;4.40;;;22.00;62.00;;;;;;20840802;28;20061;-56
2022/09/19 05:29:06;;;;;;;6.75;3.45;;;21.90;62.30;;;;;;20840032;28;20670;-54
2022/09/19 05:39:07;;;;;;;8.88;3.78;;;21.90;62.20;;;;;;20840102;28;20111;-55
2022/09/19 05:49:09;;;;;;;7.82;3.97;;;21.80;62.70;;;;;;20839436;28;20139;-54
2022/09/19 05:59:11;;;;;;;7.18;3.58;;;21.90;62.50;;;;;;20837275;28;20053;-56
2022/09/19 06:09:13;;;;;;;10.38;4.97;;;21.90;62.60;;;;;;20837350;28;20497;-54
2022/09/19 06:19:14;;;;;;;8.85;3.80;;;22.00;62.40;;;;;;20835559;28;20064;-54
2022/09/19 06:29:16;;;;;;;7.55;3.55;;;21.90;62.60;;;;;;20834682;28;20050;-54
2022/09/19 06:39:17;;;;;;;10.73;3.72;;;22.00;62.00;;;;;;20834258;28;20504;-55
2022/09/19 06:49:19;;;;;;;5.80;3.40;;;22.00;61.90;;;;;;20832752;28;20041;-55
2022/09/19 06:59:21;;;;;;;7.40;3.97;;;22.00;61.60;;;;;;20832106;28;20136;-54
2022/09/19 07:09:24;;;;;;;5.57;3.23;;;22.20;61.00;;;;;;20831862;28;20045;-56
2022/09/19 07:19:26;;;;;;;;;;;22.10;61.50;;;;;;20831145;28;20091;-55
2022/09/19 07:29:28;;;;;;;7.78;3.70;;;22.10;61.60;;;;;;20830699;28;19925;-56
2022/09/19 07:39:30;;;;;;;9.87;4.37;;;22.20;61.30;;;;;;20831937;28;20049;-57
2022/09/19 07:49:32;;;;;;;8.43;3.80;;;22.40;61.10;;;;;;20830736;28;20077;-57
2022/09/19 07:59:33;;;;;;;9.88;4.30;;;22.60;60.60;;;;;;20829878;28;20049;-58
2022/09/19 08:09:35;;;;;;;7.90;3.13;;;22.70;60.40;;;;;;20829239;28;20042;-58
2022/09/19 08:19:39;;;;;;;8.05;2.85;;;23.00;59.20;;;;;;20829594;28;20412;-54
2022/09/19 08:29:40;;;;;;;5.68;3.45;;;22.90;59.40;;;;;;20832039;28;20540;-56
2022/09/19 08:40:15;;;;;;;5.40;3.30;;;23.00;59.00;;;;;;20843444;28;20049;-58
2022/09/19 08:50:11;;;;;;;7.65;3.28;;;23.10;59.00;;;;;;20843361;28;20409;-56
2022/09/19 09:00:21;;;;;;;8.93;4.50;;;23.20;58.70;;;;;;20842925;28;20076;-58
2022/09/19 09:10:39;;;;;;;6.45;3.22;;;23.40;58.20;;;;;;20841048;28;20053;-57
2022/09/19 09:20:44;;;;;;;27.50;16.65;;;23.60;57.50;;;;;;20839738;28;20049;-56
2022/09/19 09:30:49;;;;;;;9.60;3.00;;;23.70;57.50;;;;;;20836361;28;20092;-55
2022/09/19 09:51:27;;;;;;;7.22;4.03;;;25.10;53.00;;;;;;20837936;28;20068;-56
2022/09/19 10:12:41;;;;;;;11.60;3.83;;;24.60;55.30;;;;;;20837535;28;20184;-57
2022/09/19 10:22:43;;;;;;;15.80;4.20;;;24.60;55.40;;;;;;20836273;28;20052;-56
2022/09/19 10:32:46;;;;;;;10.93;3.87;;;24.60;56.00;;;;;;20835135;28;20060;-55
2022/09/19 10:42:48;;;;;;;9.02;3.22;;;24.70;55.20;;;;;;20833882;28;20053;-54
2022/09/19 10:52:51;;;;;;;10.57;4.30;;;24.80;55.20;;;;;;20832094;28;20413;-55
2022/09/19 11:03:05;;;;;;;11.40;4.57;;;24.90;55.10;;;;;;20829638;28;20057;-56
2022/09/19 11:13:15;;;;;;;10.02;3.78;;;25.10;54.30;;;;;;20830599;28;20057;-57
2022/09/19 11:23:41;;;;;;;6.97;3.33;;;25.10;54.70;;;;;;20831448;28;20510;-57
2022/09/19 11:33:55;;;;;;;8.55;3.47;;;25.20;54.00;;;;;;20829538;28;20592;-57
2022/09/19 11:44:08;;;;;;;8.88;3.40;;;25.30;53.90;;;;;;20828745;28;20136;-55
2022/09/19 11:54:19;;;;;;;8.05;3.53;;;25.40;53.60;;;;;;20828656;28;20056;-58
2022/09/19 12:04:32;;;;;;;8.38;3.72;;;25.60;53.10;;;;;;20832832;28;20072;-56
2022/09/19 12:14:49;;;;;;;9.40;5.80;;;25.60;52.90;;;;;;20844030;28;20057;-56
2022/09/19 12:24:58;;;;;;;9.10;3.30;;;26.10;51.10;;;;;;20845399;28;20056;-54
2022/09/19 12:35:13;;;;;;;5.38;3.30;;;26.20;51.00;;;;;;20842542;28;20065;-59
2022/09/19 12:45:22;;;;;;;8.75;2.80;;;26.40;50.40;;;;;;20841609;28;20042;-55
2022/09/19 12:55:38;;;;;;;9.40;3.10;;;26.50;49.00;;;;;;20842660;28;20049;-56
2022/09/19 13:05:46;;;;;;;5.35;2.92;;;26.60;49.10;;;;;;20842159;28;20042;-58
2022/09/19 13:16:04;;;;;;;8.50;3.42;;;26.90;48.30;;;;;;20841107;28;20167;-54
2022/09/19 13:26:16;;;;;;;5.68;3.10;;;27.10;47.50;;;;;;20840370;28;20133;-55
2022/09/19 13:36:39;;;;;;;11.63;3.67;;;27.30;47.10;;;;;;20838876;28;20054;-56
2022/09/19 13:46:58;;;;;;;7.65;3.42;;;27.50;46.70;;;;;;20839030;28;20124;-54
2022/09/19 13:57:03;;;;;;;18.63;4.00;;;27.50;45.80;;;;;;20837719;28;20049;-57
2022/09/19 14:07:07;;;;;;;7.53;2.88;;;27.50;45.40;;;;;;20837569;28;20045;-58
2022/09/19 14:17:18;;;;;;;9.93;3.60;;;27.60;45.00;;;;;;20836958;28;20053;-55
2022/09/19 14:27:37;;;;;;;9.65;3.15;;;27.60;45.40;;;;;;20834934;28;20081;-57
2022/09/19 14:38:05;;;;;;;7.30;2.70;;;27.50;45.10;;;;;;20834441;28;20198;-55
2022/09/19 14:48:23;;;;;;;4.85;3.15;;;27.80;44.80;;;;;;20834297;28;20111;-55
2022/09/19 14:58:33;;;;;;;5.90;3.20;;;27.70;44.90;;;;;;20833733;28;20493;-55
2022/09/19 15:08:35;;;;;;;8.27;3.60;;;27.80;44.50;;;;;;20831924;28;20057;-56
2022/09/19 15:18:40;;;;;;;10.48;3.38;;;28.00;44.00;;;;;;20832126;28;20410;-56
2022/09/19 15:28:58;;;;;;;5.75;3.10;;;28.10;43.30;;;;;;20828005;28;20076;-55
2022/09/19 15:39:02;;;;;;;6.85;3.00;;;28.10;43.10;;;;;;20825765;28;20128;-57
2022/09/19 15:49:16;;;;;;;8.88;4.80;;;27.80;43.30;;;;;;20827293;28;20398;-57
2022/09/19 15:59:21;;;;;;;7.63;3.40;;;27.90;42.70;;;;;;20827456;28;20133;-56
2022/09/19 16:09:37;;;;;;;4.30;2.92;;;28.10;43.00;;;;;;20828276;28;20049;-58
2022/09/19 16:19:40;;;;;;;11.57;5.78;;;28.00;42.70;;;;;;20827299;28;20057;-57
2022/09/19 16:29:46;;;;;;;6.03;3.38;;;27.70;43.00;;;;;;20827567;28;20083;-57
2022/09/19 16:39:49;;;;;;;6.63;3.10;;;27.60;43.10;;;;;;20828709;28;20093;-60
2022/09/19 16:49:53;;;;;;;7.55;2.45;;;27.70;42.60;;;;;;20828969;28;20450;-61
2022/09/19 16:59:55;;;;;;;31.80;8.10;;;27.80;41.60;;;;;;20841598;28;20061;-62
2022/09/19 17:09:56;;;;;;;11.18;4.35;;;27.70;43.70;;;;;;20840980;28;20049;-59
2022/09/19 17:19:58;;;;;;;6.25;2.97;;;27.60;44.00;;;;;;20839836;28;20132;-59
2022/09/19 17:30:00;;;;;;;4.38;2.20;;;27.40;43.50;;;;;;20839230;28;20128;-59
2022/09/19 17:40:03;;;;;;;4.70;2.38;;;27.40;42.10;;;;;;20839237;28;20053;-58
2022/09/19 17:50:05;;;;;;;6.10;3.00;;;27.30;41.70;;;;;;20837996;28;20084;-57
2022/09/19 18:00:08;;;;;;;4.53;2.67;;;27.20;42.30;;;;;;20837165;28;20152;-59
2022/09/19 18:10:10;;;;;;;4.47;3.28;;;27.10;43.70;;;;;;20837209;28;20049;-57
2022/09/19 18:20:11;;;;;;;;;;;26.90;44.40;;;;;;20836694;28;20509;-59
2022/09/19 18:30:15;;;;;;;4.23;2.40;;;26.80;44.10;;;;;;20834653;28;20392;-59
2022/09/19 18:40:17;;;;;;;4.20;2.40;;;26.70;42.50;;;;;;20835936;28;20465;-59
2022/09/19 18:50:18;;;;;;;6.30;2.30;;;26.70;40.10;;;;;;20834830;28;20513;-58
2022/09/19 19:00:20;;;;;;;3.58;2.70;;;26.60;40.50;;;;;;20833836;28;20433;-59
2022/09/19 19:10:21;;;;;;;3.28;2.60;;;26.40;41.50;;;;;;20832090;28;20046;-57
2022/09/19 19:20:23;;;;;;;4.97;3.20;;;26.40;42.90;;;;;;20831707;28;20045;-56
2022/09/19 19:30:24;;;;;;;4.30;2.90;;;26.30;43.90;;;;;;20829859;28;20124;-57
2022/09/19 19:40:26;;;;;;;4.40;3.28;;;26.20;44.60;;;;;;20829812;28;20489;-56
2022/09/19 19:50:27;;;;;;;3.80;3.00;;;26.10;45.70;;;;;;20830303;28;20486;-59
2022/09/19 20:00:29;;;;;;;5.80;3.22;;;26.10;46.00;;;;;;20829082;28;20307;-57
2022/09/19 20:10:31;;;;;;;4.65;3.08;;;25.90;46.40;;;;;;20828929;28;20128;-57
2022/09/19 20:20:36;;;;;;;9.93;3.20;;;25.90;46.20;;;;;;20828676;28;20069;-57
2022/09/19 20:30:38;;;;;;;6.15;3.30;;;25.90;45.70;;;;;;20840115;28;20136;-57
2022/09/19 20:40:39;;;;;;;4.68;2.70;;;25.80;45.40;;;;;;20843789;28;20057;-57
2022/09/19 20:50:50;;;;;;;6.22;2.85;;;25.70;44.10;;;;;;20844098;28;20508;-58
2022/09/19 21:01:04;;;;;;;14.43;9.80;;;25.70;43.40;;;;;;20843610;28;20053;-58
2022/09/19 21:11:08;;;;;;;5.57;3.25;;;25.70;43.60;;;;;;20842429;28;20510;-57
2022/09/19 21:21:12;;;;;;;6.88;3.45;;;25.50;48.00;;;;;;20841433;28;20045;-59
2022/09/19 21:31:16;;;;;;;4.70;2.58;;;25.30;48.50;;;;;;20841040;28;20053;-59
2022/09/19 21:41:18;;;;;;;7.63;2.85;;;24.90;51.30;;;;;;20839687;28;20449;-57
2022/09/19 21:51:26;;;;;;;4.13;2.33;;;24.40;52.30;;;;;;20838864;28;20052;-59
2022/09/19 22:01:30;;;;;;;3.22;2.05;;;24.20;52.40;;;;;;20837564;28;20064;-58
2022/09/19 22:11:34;;;;;;;3.65;2.13;;;24.00;52.90;;;;;;20837051;28;20394;-60
2022/09/19 22:21:36;;;;;;;5.93;2.85;;;23.80;53.60;;;;;;20836246;28;20398;-58
2022/09/19 22:31:37;;;;;;;4.70;2.33;;;23.70;54.40;;;;;;20835782;28;20497;-56
2022/09/19 22:41:39;;;;;;;2.63;2.05;;;23.50;55.70;;;;;;20835846;28;20069;-57
2022/09/19 22:51:40;;;;;;;3.85;2.17;;;23.20;57.50;;;;;;20834126;28;20072;-57
2022/09/19 23:01:42;;;;;;;4.15;2.58;;;23.00;58.00;;;;;;20833306;28;20053;-57
2022/09/19 23:11:46;;;;;;;3.53;1.87;;;22.90;58.60;;;;;;20833417;28;20042;-58
2022/09/19 23:21:52;;;;;;;12.00;3.88;;;22.90;57.60;;;;;;20831952;28;20053;-57
2022/09/19 23:31:53;;;;;;;5.68;3.20;;;22.80;62.80;;;;;;20831508;28;20049;-58
2022/09/19 23:41:55;;;;;;;4.63;2.65;;;22.20;68.70;;;;;;20831187;28;20102;-57
2022/09/19 23:51:57;;;;;;;4.37;2.53;;;21.60;69.90;;;;;;20830862;28;20049;-56
